sensor_id;sensor_type;location;lat;lon;timestamp;P1;durP1;ratioP1;P2;durP2;ratioP2
62574;SDS011;70119;45.638;11.714;2023-11-19T00:00:43;11.07;;;7.60;;
62574;SDS011;70119;45.638;11.714;2023-11-19T00:03:09;10.88;;;7.93;;
62574;SDS011;70119;45.638;11.714;2023-11-19T00:05:38;10.60;;;7.85;;
62574;SDS011;70119;45.638;11.714;2023-11-19T00:08:04;10.18;;;7.30;;
62574;SDS011;70119;45.638;11.714;2023-11-19T00:10:31;10.45;;;7.75;;
62574;SDS011;70119;45.638;11.714;2023-11-19T00:12:57;11.52;;;7.85;;
62574;SDS011;70119;45.638;11.714;2023-11-19T00:15:23;11.52;;;7.75;;
62574;SDS011;70119;45.638;11.714;2023-11-19T00:17:49;10.57;;;7.43;;
62574;SDS011;70119;45.638;11.714;2023-11-19T00:20:18;11.18;;;7.70;;
62574;SDS011;70119;45.638;11.714;2023-11-19T00:22:46;9.57;;;7.13;;
62574;SDS011;70119;45.638;11.714;2023-11-19T00:25:19;10.38;;;7.45;;
62574;SDS011;70119;45.638;11.714;2023-11-19T00:27:46;9.80;;;7.45;;
62574;SDS011;70119;45.638;11.714;2023-11-19T00:30:13;10.73;;;7.40;;
62574;SDS011;70119;45.638;11.714;2023-11-19T00:32:39;11.05;;;7.68;;
62574;SDS011;70119;45.638;11.714;2023-11-19T00:35:06;11.13;;;7.75;;
62574;SDS011;70119;45.638;11.714;2023-11-19T00:37:32;10.52;;;7.68;;
62574;SDS011;70119;45.638;11.714;2023-11-19T00:39:58;11.15;;;7.85;;
62574;SDS011;70119;45.638;11.714;2023-11-19T00:42:24;11.07;;;7.88;;
62574;SDS011;70119;45.638;11.714;2023-11-19T00:44:50;10.90;;;7.65;;
62574;SDS011;70119;45.638;11.714;2023-11-19T00:47:17;10.75;;;7.70;;
62574;SDS011;70119;45.638;11.714;2023-11-19T00:49:46;10.93;;;7.70;;
62574;SDS011;70119;45.638;11.714;2023-11-19T00:52:16;11.63;;;8.23;;
62574;SDS011;70119;45.638;11.714;2023-11-19T00:54:42;10.45;;;7.60;;
62574;SDS011;70119;45.638;11.714;2023-11-19T00:57:08;10.73;;;7.45;;
62574;SDS011;70119;45.638;11.714;2023-11-19T00:59:34;11.63;;;7.97;;
62574;SDS011;70119;45.638;11.714;2023-11-19T01:02:00;11.25;;;8.00;;
62574;SDS011;70119;45.638;11.714;2023-11-19T01:04:30;11.00;;;7.72;;
62574;SDS011;70119;45.638;11.714;2023-11-19T01:07:00;10.93;;;7.53;;
62574;SDS011;70119;45.638;11.714;2023-11-19T01:09:29;10.18;;;7.75;;
62574;SDS011;70119;45.638;11.714;2023-11-19T01:11:57;10.82;;;7.80;;
62574;SDS011;70119;45.638;11.714;2023-11-19T01:14:25;10.55;;;7.45;;
62574;SDS011;70119;45.638;11.714;2023-11-19T01:16:51;11.30;;;7.90;;
62574;SDS011;70119;45.638;11.714;2023-11-19T01:19:19;10.20;;;7.68;;
62574;SDS011;70119;45.638;11.714;2023-11-19T01:21:49;9.88;;;7.25;;
62574;SDS011;70119;45.638;11.714;2023-11-19T01:24:16;9.90;;;7.22;;
62574;SDS011;70119;45.638;11.714;2023-11-19T01:26:43;11.85;;;7.72;;
62574;SDS011;70119;45.638;11.714;2023-11-19T01:29:13;12.07;;;8.13;;
62574;SDS011;70119;45.638;11.714;2023-11-19T01:31:43;11.70;;;8.20;;
62574;SDS011;70119;45.638;11.714;2023-11-19T01:34:11;12.15;;;8.27;;
62574;SDS011;70119;45.638;11.714;2023-11-19T01:36:37;11.13;;;7.97;;
62574;SDS011;70119;45.638;11.714;2023-11-19T01:39:04;11.25;;;7.97;;
62574;SDS011;70119;45.638;11.714;2023-11-19T01:41:36;11.02;;;7.85;;
62574;SDS011;70119;45.638;11.714;2023-11-19T01:44:05;12.13;;;8.40;;
62574;SDS011;70119;45.638;11.714;2023-11-19T01:46:31;13.85;;;8.07;;
62574;SDS011;70119;45.638;11.714;2023-11-19T01:48:58;11.15;;;7.60;;
62574;SDS011;70119;45.638;11.714;2023-11-19T01:51:25;11.27;;;7.53;;
62574;SDS011;70119;45.638;11.714;2023-11-19T01:53:52;11.52;;;7.93;;
62574;SDS011;70119;45.638;11.714;2023-11-19T01:56:18;10.80;;;7.65;;
62574;SDS011;70119;45.638;11.714;2023-11-19T01:58:45;9.90;;;7.43;;
62574;SDS011;70119;45.638;11.714;2023-11-19T02:01:14;11.05;;;8.10;;
62574;SDS011;70119;45.638;11.714;2023-11-19T02:03:40;11.00;;;7.85;;
62574;SDS011;70119;45.638;11.714;2023-11-19T02:06:06;10.88;;;7.70;;
62574;SDS011;70119;45.638;11.714;2023-11-19T02:08:34;11.00;;;7.68;;
62574;SDS011;70119;45.638;11.714;2023-11-19T02:10:59;10.57;;;8.15;;
62574;SDS011;70119;45.638;11.714;2023-11-19T02:13:25;10.23;;;7.78;;
62574;SDS011;70119;45.638;11.714;2023-11-19T02:15:52;10.73;;;7.32;;
62574;SDS011;70119;45.638;11.714;2023-11-19T02:18:22;11.00;;;8.10;;
62574;SDS011;70119;45.638;11.714;2023-11-19T02:20:52;11.82;;;8.10;;
62574;SDS011;70119;45.638;11.714;2023-11-19T02:23:27;11.23;;;7.90;;
62574;SDS011;70119;45.638;11.714;2023-11-19T02:28:23;10.48;;;7.80;;
62574;SDS011;70119;45.638;11.714;2023-11-19T02:30:49;11.45;;;7.93;;
62574;SDS011;70119;45.638;11.714;2023-11-19T02:33:15;11.43;;;7.63;;
62574;SDS011;70119;45.638;11.714;2023-11-19T02:35:41;10.95;;;7.65;;
62574;SDS011;70119;45.638;11.714;2023-11-19T02:38:07;12.00;;;8.05;;
62574;SDS011;70119;45.638;11.714;2023-11-19T02:40:33;11.38;;;7.78;;
62574;SDS011;70119;45.638;11.714;2023-11-19T02:42:59;11.75;;;8.05;;
62574;SDS011;70119;45.638;11.714;2023-11-19T02:45:25;10.48;;;7.93;;
62574;SDS011;70119;45.638;11.714;2023-11-19T02:47:51;10.65;;;8.02;;
62574;SDS011;70119;45.638;11.714;2023-11-19T02:50:18;11.40;;;8.00;;
62574;SDS011;70119;45.638;11.714;2023-11-19T02:52:51;10.82;;;8.15;;
62574;SDS011;70119;45.638;11.714;2023-11-19T02:55:18;10.57;;;7.57;;
62574;SDS011;70119;45.638;11.714;2023-11-19T02:57:45;10.98;;;7.82;;
62574;SDS011;70119;45.638;11.714;2023-11-19T03:02:44;11.80;;;7.93;;
62574;SDS011;70119;45.638;11.714;2023-11-19T03:05:19;11.60;;;7.65;;
62574;SDS011;70119;45.638;11.714;2023-11-19T03:07:45;11.07;;;7.90;;
62574;SDS011;70119;45.638;11.714;2023-11-19T03:10:11;10.35;;;7.65;;
62574;SDS011;70119;45.638;11.714;2023-11-19T03:12:42;12.05;;;7.53;;
62574;SDS011;70119;45.638;11.714;2023-11-19T03:15:10;10.93;;;7.68;;
62574;SDS011;70119;45.638;11.714;2023-11-19T03:17:39;10.65;;;7.85;;
62574;SDS011;70119;45.638;11.714;2023-11-19T03:20:06;10.82;;;7.78;;
62574;SDS011;70119;45.638;11.714;2023-11-19T03:22:42;9.98;;;7.88;;
62574;SDS011;70119;45.638;11.714;2023-11-19T03:25:11;11.07;;;7.70;;
62574;SDS011;70119;45.638;11.714;2023-11-19T03:27:38;11.52;;;8.07;;
62574;SDS011;70119;45.638;11.714;2023-11-19T03:30:05;10.93;;;8.00;;
62574;SDS011;70119;45.638;11.714;2023-11-19T03:32:32;10.88;;;7.47;;
62574;SDS011;70119;45.638;11.714;2023-11-19T03:34:58;10.68;;;7.57;;
62574;SDS011;70119;45.638;11.714;2023-11-19T03:37:25;11.95;;;7.75;;
62574;SDS011;70119;45.638;11.714;2023-11-19T03:39:51;10.55;;;7.60;;
62574;SDS011;70119;45.638;11.714;2023-11-19T03:42:19;10.43;;;7.55;;
62574;SDS011;70119;45.638;11.714;2023-11-19T03:44:46;12.02;;;8.07;;
62574;SDS011;70119;45.638;11.714;2023-11-19T03:47:14;10.20;;;7.50;;
62574;SDS011;70119;45.638;11.714;2023-11-19T03:49:40;10.68;;;7.55;;
62574;SDS011;70119;45.638;11.714;2023-11-19T03:52:06;9.90;;;7.22;;
62574;SDS011;70119;45.638;11.714;2023-11-19T03:54:34;10.43;;;7.50;;
62574;SDS011;70119;45.638;11.714;2023-11-19T03:57:00;10.52;;;7.68;;
62574;SDS011;70119;45.638;11.714;2023-11-19T03:59:28;10.07;;;7.70;;
62574;SDS011;70119;45.638;11.714;2023-11-19T04:01:54;10.18;;;7.35;;
62574;SDS011;70119;45.638;11.714;2023-11-19T04:04:21;10.50;;;7.50;;
62574;SDS011;70119;45.638;11.714;2023-11-19T04:06:47;10.85;;;7.50;;
62574;SDS011;70119;45.638;11.714;2023-11-19T04:09:13;10.52;;;7.28;;
62574;SDS011;70119;45.638;11.714;2023-11-19T04:11:39;10.02;;;7.30;;
62574;SDS011;70119;45.638;11.714;2023-11-19T04:14:05;10.95;;;7.53;;
62574;SDS011;70119;45.638;11.714;2023-11-19T04:16:31;9.82;;;7.70;;
62574;SDS011;70119;45.638;11.714;2023-11-19T04:18:57;10.23;;;7.22;;
62574;SDS011;70119;45.638;11.714;2023-11-19T04:21:23;11.43;;;7.80;;
62574;SDS011;70119;45.638;11.714;2023-11-19T04:23:49;11.00;;;7.75;;
62574;SDS011;70119;45.638;11.714;2023-11-19T04:26:15;10.35;;;7.38;;
62574;SDS011;70119;45.638;11.714;2023-11-19T04:28:41;9.98;;;7.20;;
62574;SDS011;70119;45.638;11.714;2023-11-19T04:31:06;10.65;;;7.22;;
62574;SDS011;70119;45.638;11.714;2023-11-19T04:33:34;12.32;;;7.25;;
62574;SDS011;70119;45.638;11.714;2023-11-19T04:36:00;10.13;;;7.47;;
62574;SDS011;70119;45.638;11.714;2023-11-19T04:38:26;9.70;;;7.53;;
62574;SDS011;70119;45.638;11.714;2023-11-19T04:40:52;10.48;;;7.65;;
62574;SDS011;70119;45.638;11.714;2023-11-19T04:43:18;9.85;;;7.38;;
62574;SDS011;70119;45.638;11.714;2023-11-19T04:45:45;10.23;;;7.22;;
62574;SDS011;70119;45.638;11.714;2023-11-19T04:48:11;10.43;;;7.50;;
62574;SDS011;70119;45.638;11.714;2023-11-19T04:50:37;10.98;;;7.65;;
62574;SDS011;70119;45.638;11.714;2023-11-19T04:53:03;10.95;;;7.35;;
62574;SDS011;70119;45.638;11.714;2023-11-19T04:55:29;9.68;;;7.15;;
62574;SDS011;70119;45.638;11.714;2023-11-19T04:57:55;10.55;;;7.95;;
62574;SDS011;70119;45.638;11.714;2023-11-19T05:00:21;10.18;;;6.95;;
62574;SDS011;70119;45.638;11.714;2023-11-19T05:02:47;10.05;;;6.97;;
62574;SDS011;70119;45.638;11.714;2023-11-19T05:05:15;10.88;;;7.65;;
62574;SDS011;70119;45.638;11.714;2023-11-19T05:07:41;11.20;;;7.68;;
62574;SDS011;70119;45.638;11.714;2023-11-19T05:10:07;10.02;;;7.47;;
62574;SDS011;70119;45.638;11.714;2023-11-19T05:12:33;10.68;;;7.10;;
62574;SDS011;70119;45.638;11.714;2023-11-19T05:14:59;10.68;;;7.28;;
62574;SDS011;70119;45.638;11.714;2023-11-19T05:17:25;9.60;;;7.05;;
62574;SDS011;70119;45.638;11.714;2023-11-19T05:19:52;9.35;;;6.90;;
62574;SDS011;70119;45.638;11.714;2023-11-19T05:22:17;9.23;;;6.82;;
62574;SDS011;70119;45.638;11.714;2023-11-19T05:24:45;10.07;;;7.32;;
62574;SDS011;70119;45.638;11.714;2023-11-19T05:27:13;11.25;;;7.30;;
62574;SDS011;70119;45.638;11.714;2023-11-19T05:29:39;9.60;;;7.05;;
62574;SDS011;70119;45.638;11.714;2023-11-19T05:32:06;10.80;;;7.05;;
62574;SDS011;70119;45.638;11.714;2023-11-19T05:34:32;9.77;;;7.00;;
62574;SDS011;70119;45.638;11.714;2023-11-19T05:36:58;10.35;;;7.70;;
62574;SDS011;70119;45.638;11.714;2023-11-19T05:39:24;10.60;;;7.45;;
62574;SDS011;70119;45.638;11.714;2023-11-19T05:41:50;10.82;;;7.57;;
62574;SDS011;70119;45.638;11.714;2023-11-19T05:44:16;11.02;;;7.43;;
62574;SDS011;70119;45.638;11.714;2023-11-19T05:46:43;9.38;;;7.32;;
62574;SDS011;70119;45.638;11.714;2023-11-19T05:49:09;11.18;;;7.05;;
62574;SDS011;70119;45.638;11.714;2023-11-19T05:51:36;10.10;;;7.10;;
62574;SDS011;70119;45.638;11.714;2023-11-19T05:54:04;9.65;;;6.85;;
62574;SDS011;70119;45.638;11.714;2023-11-19T05:56:32;10.73;;;7.10;;
62574;SDS011;70119;45.638;11.714;2023-11-19T05:58:58;9.35;;;7.03;;
62574;SDS011;70119;45.638;11.714;2023-11-19T06:01:39;9.77;;;7.03;;
62574;SDS011;70119;45.638;11.714;2023-11-19T06:04:06;9.73;;;7.10;;
62574;SDS011;70119;45.638;11.714;2023-11-19T06:06:32;9.43;;;7.20;;
62574;SDS011;70119;45.638;11.714;2023-11-19T06:08:59;11.02;;;7.32;;
62574;SDS011;70119;45.638;11.714;2023-11-19T06:11:25;9.93;;;6.82;;
62574;SDS011;70119;45.638;11.714;2023-11-19T06:13:52;9.13;;;6.90;;
62574;SDS011;70119;45.638;11.714;2023-11-19T06:16:18;9.68;;;7.05;;
62574;SDS011;70119;45.638;11.714;2023-11-19T06:18:44;9.32;;;6.53;;
62574;SDS011;70119;45.638;11.714;2023-11-19T06:21:10;10.40;;;6.97;;
62574;SDS011;70119;45.638;11.714;2023-11-19T06:23:37;9.40;;;6.72;;
62574;SDS011;70119;45.638;11.714;2023-11-19T06:26:03;9.18;;;6.80;;
62574;SDS011;70119;45.638;11.714;2023-11-19T06:28:30;9.30;;;6.80;;
62574;SDS011;70119;45.638;11.714;2023-11-19T06:30:57;9.48;;;6.72;;
62574;SDS011;70119;45.638;11.714;2023-11-19T06:33:23;9.75;;;7.05;;
62574;SDS011;70119;45.638;11.714;2023-11-19T06:35:49;10.27;;;6.80;;
62574;SDS011;70119;45.638;11.714;2023-11-19T06:38:15;8.93;;;6.60;;
62574;SDS011;70119;45.638;11.714;2023-11-19T06:40:41;10.07;;;6.80;;
62574;SDS011;70119;45.638;11.714;2023-11-19T06:43:07;9.38;;;6.47;;
62574;SDS011;70119;45.638;11.714;2023-11-19T06:45:36;10.63;;;6.88;;
62574;SDS011;70119;45.638;11.714;2023-11-19T06:48:02;9.52;;;6.85;;
62574;SDS011;70119;45.638;11.714;2023-11-19T06:50:29;9.75;;;6.70;;
62574;SDS011;70119;45.638;11.714;2023-11-19T06:52:55;9.02;;;6.90;;
62574;SDS011;70119;45.638;11.714;2023-11-19T06:55:21;8.90;;;6.35;;
62574;SDS011;70119;45.638;11.714;2023-11-19T06:57:47;8.85;;;6.60;;
62574;SDS011;70119;45.638;11.714;2023-11-19T07:00:12;10.38;;;6.70;;
62574;SDS011;70119;45.638;11.714;2023-11-19T07:02:38;9.15;;;6.88;;
62574;SDS011;70119;45.638;11.714;2023-11-19T07:05:05;9.40;;;6.80;;
62574;SDS011;70119;45.638;11.714;2023-11-19T07:07:31;9.98;;;6.72;;
62574;SDS011;70119;45.638;11.714;2023-11-19T07:09:58;9.48;;;6.45;;
62574;SDS011;70119;45.638;11.714;2023-11-19T07:12:23;9.07;;;6.43;;
62574;SDS011;70119;45.638;11.714;2023-11-19T07:14:51;8.35;;;6.00;;
62574;SDS011;70119;45.638;11.714;2023-11-19T07:17:18;8.95;;;6.50;;
62574;SDS011;70119;45.638;11.714;2023-11-19T07:19:46;9.00;;;6.43;;
62574;SDS011;70119;45.638;11.714;2023-11-19T07:22:17;9.07;;;6.72;;
62574;SDS011;70119;45.638;11.714;2023-11-19T07:24:44;9.25;;;6.55;;
62574;SDS011;70119;45.638;11.714;2023-11-19T07:27:10;9.05;;;6.63;;
62574;SDS011;70119;45.638;11.714;2023-11-19T07:29:36;8.93;;;6.40;;
62574;SDS011;70119;45.638;11.714;2023-11-19T07:32:03;9.82;;;6.13;;
62574;SDS011;70119;45.638;11.714;2023-11-19T07:34:30;9.48;;;6.18;;
62574;SDS011;70119;45.638;11.714;2023-11-19T07:36:56;10.13;;;6.10;;
62574;SDS011;70119;45.638;11.714;2023-11-19T07:39:24;8.80;;;6.25;;
62574;SDS011;70119;45.638;11.714;2023-11-19T07:41:51;8.70;;;6.10;;
62574;SDS011;70119;45.638;11.714;2023-11-19T07:44:18;8.60;;;5.97;;
62574;SDS011;70119;45.638;11.714;2023-11-19T07:46:45;8.55;;;5.93;;
62574;SDS011;70119;45.638;11.714;2023-11-19T07:49:12;8.82;;;5.95;;
62574;SDS011;70119;45.638;11.714;2023-11-19T07:51:40;7.78;;;5.65;;
62574;SDS011;70119;45.638;11.714;2023-11-19T07:54:07;8.63;;;6.20;;
62574;SDS011;70119;45.638;11.714;2023-11-19T07:56:33;9.77;;;6.45;;
62574;SDS011;70119;45.638;11.714;2023-11-19T07:59:01;8.30;;;5.65;;
62574;SDS011;70119;45.638;11.714;2023-11-19T08:01:28;9.13;;;6.75;;
62574;SDS011;70119;45.638;11.714;2023-11-19T08:03:55;8.90;;;6.10;;
62574;SDS011;70119;45.638;11.714;2023-11-19T08:06:22;8.18;;;5.90;;
62574;SDS011;70119;45.638;11.714;2023-11-19T08:08:49;9.60;;;5.93;;
62574;SDS011;70119;45.638;11.714;2023-11-19T08:11:16;8.35;;;5.90;;
62574;SDS011;70119;45.638;11.714;2023-11-19T08:13:45;7.78;;;5.85;;
62574;SDS011;70119;45.638;11.714;2023-11-19T08:16:15;8.30;;;5.85;;
62574;SDS011;70119;45.638;11.714;2023-11-19T08:18:50;8.05;;;5.63;;
62574;SDS011;70119;45.638;11.714;2023-11-19T08:21:23;8.70;;;5.78;;
62574;SDS011;70119;45.638;11.714;2023-11-19T08:23:58;8.13;;;5.40;;
62574;SDS011;70119;45.638;11.714;2023-11-19T08:26:24;8.35;;;5.40;;
62574;SDS011;70119;45.638;11.714;2023-11-19T08:28:55;8.30;;;5.90;;
62574;SDS011;70119;45.638;11.714;2023-11-19T08:31:24;8.18;;;5.65;;
62574;SDS011;70119;45.638;11.714;2023-11-19T08:33:51;7.80;;;5.32;;
62574;SDS011;70119;45.638;11.714;2023-11-19T08:36:17;8.40;;;5.35;;
62574;SDS011;70119;45.638;11.714;2023-11-19T08:38:43;7.18;;;5.18;;
62574;SDS011;70119;45.638;11.714;2023-11-19T08:41:10;7.07;;;5.30;;
62574;SDS011;70119;45.638;11.714;2023-11-19T08:43:37;6.63;;;4.93;;
62574;SDS011;70119;45.638;11.714;2023-11-19T08:46:12;6.90;;;5.18;;
62574;SDS011;70119;45.638;11.714;2023-11-19T08:48:39;7.45;;;5.30;;
62574;SDS011;70119;45.638;11.714;2023-11-19T08:51:07;7.90;;;5.00;;
62574;SDS011;70119;45.638;11.714;2023-11-19T08:53:34;7.63;;;5.35;;
62574;SDS011;70119;45.638;11.714;2023-11-19T08:56:00;7.88;;;5.55;;
62574;SDS011;70119;45.638;11.714;2023-11-19T08:58:28;7.05;;;5.22;;
62574;SDS011;70119;45.638;11.714;2023-11-19T09:00:55;8.52;;;5.50;;
62574;SDS011;70119;45.638;11.714;2023-11-19T09:03:27;8.52;;;5.55;;
62574;SDS011;70119;45.638;11.714;2023-11-19T09:05:56;7.70;;;5.25;;
62574;SDS011;70119;45.638;11.714;2023-11-19T09:08:23;9.38;;;5.50;;
62574;SDS011;70119;45.638;11.714;2023-11-19T09:10:52;8.35;;;5.35;;
62574;SDS011;70119;45.638;11.714;2023-11-19T09:13:27;9.25;;;5.53;;
62574;SDS011;70119;45.638;11.714;2023-11-19T09:15:58;8.02;;;5.50;;
62574;SDS011;70119;45.638;11.714;2023-11-19T09:18:30;7.85;;;5.38;;
62574;SDS011;70119;45.638;11.714;2023-11-19T09:20:57;8.65;;;5.50;;
62574;SDS011;70119;45.638;11.714;2023-11-19T09:23:23;7.88;;;5.38;;
62574;SDS011;70119;45.638;11.714;2023-11-19T09:25:50;8.90;;;5.60;;
62574;SDS011;70119;45.638;11.714;2023-11-19T09:28:16;7.45;;;5.78;;
62574;SDS011;70119;45.638;11.714;2023-11-19T09:30:42;8.52;;;5.68;;
62574;SDS011;70119;45.638;11.714;2023-11-19T09:33:08;8.57;;;5.85;;
62574;SDS011;70119;45.638;11.714;2023-11-19T09:35:34;8.30;;;5.38;;
62574;SDS011;70119;45.638;11.714;2023-11-19T09:38:00;7.70;;;5.55;;
62574;SDS011;70119;45.638;11.714;2023-11-19T09:40:27;7.43;;;5.60;;
62574;SDS011;70119;45.638;11.714;2023-11-19T09:42:53;8.10;;;5.70;;
62574;SDS011;70119;45.638;11.714;2023-11-19T09:45:20;7.47;;;5.65;;
62574;SDS011;70119;45.638;11.714;2023-11-19T09:47:46;8.15;;;6.07;;
62574;SDS011;70119;45.638;11.714;2023-11-19T09:50:21;9.27;;;5.78;;
62574;SDS011;70119;45.638;11.714;2023-11-19T09:52:47;8.98;;;5.68;;
62574;SDS011;70119;45.638;11.714;2023-11-19T09:55:13;8.18;;;5.70;;
62574;SDS011;70119;45.638;11.714;2023-11-19T09:57:40;7.35;;;5.30;;
62574;SDS011;70119;45.638;11.714;2023-11-19T10:00:10;7.57;;;5.70;;
62574;SDS011;70119;45.638;11.714;2023-11-19T10:02:38;7.90;;;5.78;;
62574;SDS011;70119;45.638;11.714;2023-11-19T10:05:07;7.93;;;5.63;;
62574;SDS011;70119;45.638;11.714;2023-11-19T10:07:35;7.95;;;5.55;;
62574;SDS011;70119;45.638;11.714;2023-11-19T10:10:04;8.20;;;5.72;;
62574;SDS011;70119;45.638;11.714;2023-11-19T10:12:30;9.70;;;5.85;;
62574;SDS011;70119;45.638;11.714;2023-11-19T10:14:57;8.23;;;5.80;;
62574;SDS011;70119;45.638;11.714;2023-11-19T10:17:32;8.48;;;5.60;;
62574;SDS011;70119;45.638;11.714;2023-11-19T10:19:59;8.27;;;5.53;;
62574;SDS011;70119;45.638;11.714;2023-11-19T10:22:25;8.25;;;5.82;;
62574;SDS011;70119;45.638;11.714;2023-11-19T10:24:52;8.02;;;5.55;;
62574;SDS011;70119;45.638;11.714;2023-11-19T10:27:18;8.50;;;5.78;;
62574;SDS011;70119;45.638;11.714;2023-11-19T10:29:47;9.48;;;5.72;;
62574;SDS011;70119;45.638;11.714;2023-11-19T10:32:13;7.53;;;5.25;;
62574;SDS011;70119;45.638;11.714;2023-11-19T10:34:42;7.95;;;5.30;;
62574;SDS011;70119;45.638;11.714;2023-11-19T10:37:08;6.57;;;4.82;;
62574;SDS011;70119;45.638;11.714;2023-11-19T10:39:52;7.88;;;5.13;;
62574;SDS011;70119;45.638;11.714;2023-11-19T10:42:21;7.45;;;5.22;;
62574;SDS011;70119;45.638;11.714;2023-11-19T10:44:47;7.57;;;4.93;;
62574;SDS011;70119;45.638;11.714;2023-11-19T10:47:16;8.02;;;5.22;;
62574;SDS011;70119;45.638;11.714;2023-11-19T10:49:44;7.63;;;5.18;;
62574;SDS011;70119;45.638;11.714;2023-11-19T10:52:17;8.18;;;5.25;;
62574;SDS011;70119;45.638;11.714;2023-11-19T10:54:49;7.68;;;5.28;;
62574;SDS011;70119;45.638;11.714;2023-11-19T10:57:21;8.57;;;5.10;;
62574;SDS011;70119;45.638;11.714;2023-11-19T10:59:55;8.63;;;5.03;;
62574;SDS011;70119;45.638;11.714;2023-11-19T11:02:26;7.78;;;5.00;;
62574;SDS011;70119;45.638;11.714;2023-11-19T11:04:55;7.10;;;5.10;;
62574;SDS011;70119;45.638;11.714;2023-11-19T11:07:21;7.68;;;5.00;;
62574;SDS011;70119;45.638;11.714;2023-11-19T11:09:51;7.70;;;5.22;;
62574;SDS011;70119;45.638;11.714;2023-11-19T11:12:17;7.57;;;4.93;;
62574;SDS011;70119;45.638;11.714;2023-11-19T11:14:47;8.05;;;5.07;;
62574;SDS011;70119;45.638;11.714;2023-11-19T11:17:14;8.60;;;5.00;;
62574;SDS011;70119;45.638;11.714;2023-11-19T11:19:43;7.07;;;4.72;;
62574;SDS011;70119;45.638;11.714;2023-11-19T11:22:09;7.65;;;5.25;;
62574;SDS011;70119;45.638;11.714;2023-11-19T11:32:34;7.47;;;4.43;;
62574;SDS011;70119;45.638;11.714;2023-11-19T11:37:45;7.38;;;4.78;;
62574;SDS011;70119;45.638;11.714;2023-11-19T11:40:16;6.40;;;4.43;;
62574;SDS011;70119;45.638;11.714;2023-11-19T11:42:48;6.75;;;4.60;;
62574;SDS011;70119;45.638;11.714;2023-11-19T11:45:16;6.85;;;4.53;;
62574;SDS011;70119;45.638;11.714;2023-11-19T11:50:15;6.88;;;4.30;;
62574;SDS011;70119;45.638;11.714;2023-11-19T11:55:26;6.78;;;4.50;;
62574;SDS011;70119;45.638;11.714;2023-11-19T11:57:59;6.63;;;4.60;;
62574;SDS011;70119;45.638;11.714;2023-11-19T12:00:39;7.03;;;4.63;;
62574;SDS011;70119;45.638;11.714;2023-11-19T12:03:07;6.07;;;4.30;;
62574;SDS011;70119;45.638;11.714;2023-11-19T12:05:44;6.75;;;4.50;;
62574;SDS011;70119;45.638;11.714;2023-11-19T12:08:11;6.28;;;4.38;;
62574;SDS011;70119;45.638;11.714;2023-11-19T12:13:19;7.18;;;4.25;;
62574;SDS011;70119;45.638;11.714;2023-11-19T12:20:57;6.03;;;4.20;;
62574;SDS011;70119;45.638;11.714;2023-11-19T12:23:29;7.50;;;4.32;;
62574;SDS011;70119;45.638;11.714;2023-11-19T12:25:56;5.97;;;4.25;;
62574;SDS011;70119;45.638;11.714;2023-11-19T12:28:23;6.95;;;4.35;;
62574;SDS011;70119;45.638;11.714;2023-11-19T12:30:51;6.88;;;4.30;;
62574;SDS011;70119;45.638;11.714;2023-11-19T12:33:18;6.20;;;4.25;;
62574;SDS011;70119;45.638;11.714;2023-11-19T12:35:47;7.03;;;4.47;;
62574;SDS011;70119;45.638;11.714;2023-11-19T12:38:20;6.82;;;4.40;;
62574;SDS011;70119;45.638;11.714;2023-11-19T12:40:46;6.63;;;4.55;;
62574;SDS011;70119;45.638;11.714;2023-11-19T12:43:27;6.45;;;4.50;;
62574;SDS011;70119;45.638;11.714;2023-11-19T12:45:53;7.78;;;4.53;;
62574;SDS011;70119;45.638;11.714;2023-11-19T12:48:20;6.32;;;3.97;;
62574;SDS011;70119;45.638;11.714;2023-11-19T12:50:56;7.85;;;4.53;;
62574;SDS011;70119;45.638;11.714;2023-11-19T12:53:23;5.40;;;3.85;;
62574;SDS011;70119;45.638;11.714;2023-11-19T12:55:49;6.97;;;4.40;;
62574;SDS011;70119;45.638;11.714;2023-11-19T12:58:29;6.18;;;3.97;;
62574;SDS011;70119;45.638;11.714;2023-11-19T13:01:02;6.47;;;4.07;;
62574;SDS011;70119;45.638;11.714;2023-11-19T13:03:32;6.63;;;3.97;;
62574;SDS011;70119;45.638;11.714;2023-11-19T13:06:06;5.65;;;4.10;;
62574;SDS011;70119;45.638;11.714;2023-11-19T13:08:45;7.63;;;4.03;;
62574;SDS011;70119;45.638;11.714;2023-11-19T13:11:14;6.15;;;4.10;;
62574;SDS011;70119;45.638;11.714;2023-11-19T13:13:56;7.18;;;4.07;;
62574;SDS011;70119;45.638;11.714;2023-11-19T13:16:26;6.95;;;3.83;;
62574;SDS011;70119;45.638;11.714;2023-11-19T13:18:53;6.80;;;4.00;;
62574;SDS011;70119;45.638;11.714;2023-11-19T13:21:19;7.65;;;4.40;;
62574;SDS011;70119;45.638;11.714;2023-11-19T13:23:45;5.60;;;4.00;;
62574;SDS011;70119;45.638;11.714;2023-11-19T13:26:11;6.00;;;4.00;;
62574;SDS011;70119;45.638;11.714;2023-11-19T13:28:38;6.22;;;4.07;;
62574;SDS011;70119;45.638;11.714;2023-11-19T13:31:04;7.13;;;4.03;;
62574;SDS011;70119;45.638;11.714;2023-11-19T13:33:30;5.13;;;3.55;;
62574;SDS011;70119;45.638;11.714;2023-11-19T13:35:56;5.82;;;4.00;;
62574;SDS011;70119;45.638;11.714;2023-11-19T13:38:22;6.03;;;4.00;;
62574;SDS011;70119;45.638;11.714;2023-11-19T13:40:49;5.85;;;3.80;;
62574;SDS011;70119;45.638;11.714;2023-11-19T13:43:16;6.82;;;4.00;;
62574;SDS011;70119;45.638;11.714;2023-11-19T13:45:42;6.22;;;3.83;;
62574;SDS011;70119;45.638;11.714;2023-11-19T13:48:08;6.72;;;3.90;;
62574;SDS011;70119;45.638;11.714;2023-11-19T13:50:34;6.30;;;4.03;;
62574;SDS011;70119;45.638;11.714;2023-11-19T13:53:00;6.15;;;3.83;;
62574;SDS011;70119;45.638;11.714;2023-11-19T13:55:26;6.35;;;4.05;;
62574;SDS011;70119;45.638;11.714;2023-11-19T13:57:52;6.50;;;3.80;;
62574;SDS011;70119;45.638;11.714;2023-11-19T14:00:18;5.55;;;3.88;;
62574;SDS011;70119;45.638;11.714;2023-11-19T14:02:47;6.10;;;3.97;;
62574;SDS011;70119;45.638;11.714;2023-11-19T14:05:13;5.68;;;3.70;;
62574;SDS011;70119;45.638;11.714;2023-11-19T14:07:42;6.22;;;3.75;;
62574;SDS011;70119;45.638;11.714;2023-11-19T14:10:09;5.80;;;3.95;;
62574;SDS011;70119;45.638;11.714;2023-11-19T14:12:38;5.95;;;3.92;;
62574;SDS011;70119;45.638;11.714;2023-11-19T14:15:04;7.28;;;4.15;;
62574;SDS011;70119;45.638;11.714;2023-11-19T14:17:31;6.00;;;3.70;;
62574;SDS011;70119;45.638;11.714;2023-11-19T14:19:58;6.28;;;3.80;;
62574;SDS011;70119;45.638;11.714;2023-11-19T14:22:25;5.43;;;3.63;;
62574;SDS011;70119;45.638;11.714;2023-11-19T14:24:53;5.15;;;3.70;;
62574;SDS011;70119;45.638;11.714;2023-11-19T14:27:21;5.82;;;3.67;;
62574;SDS011;70119;45.638;11.714;2023-11-19T14:29:54;5.60;;;3.65;;
62574;SDS011;70119;45.638;11.714;2023-11-19T14:32:20;6.28;;;3.97;;
62574;SDS011;70119;45.638;11.714;2023-11-19T14:34:46;6.43;;;3.72;;
62574;SDS011;70119;45.638;11.714;2023-11-19T14:37:11;5.75;;;3.78;;
62574;SDS011;70119;45.638;11.714;2023-11-19T14:39:37;5.47;;;3.53;;
62574;SDS011;70119;45.638;11.714;2023-11-19T14:42:03;5.03;;;3.67;;
62574;SDS011;70119;45.638;11.714;2023-11-19T14:44:30;5.72;;;3.80;;
62574;SDS011;70119;45.638;11.714;2023-11-19T14:46:56;5.55;;;3.70;;
62574;SDS011;70119;45.638;11.714;2023-11-19T14:49:22;5.88;;;3.90;;
62574;SDS011;70119;45.638;11.714;2023-11-19T14:51:49;5.22;;;3.35;;
62574;SDS011;70119;45.638;11.714;2023-11-19T14:54:15;6.30;;;3.85;;
62574;SDS011;70119;45.638;11.714;2023-11-19T14:56:41;6.00;;;3.70;;
62574;SDS011;70119;45.638;11.714;2023-11-19T14:59:07;6.40;;;3.75;;
62574;SDS011;70119;45.638;11.714;2023-11-19T15:01:33;5.70;;;3.50;;